WALL/BPN METAR and TAF weather

Enter ICAO airport designator
Station Type Date Time Source
WALL METAR 2018/12/09 01:00 UTC NOAA

WALL 090100Z 33004KT 9999 FEW020 29/24 Q1011


Station Type Date Time Source
WALL Decoded METAR 2018/12/09 01:00 UTC NOAA

Station name not available
Dec 08, 2018 - 08:00 PM EST / 2018.12.09 0100 UTC
Wind: from the NNW (330 degrees) at 5 MPH (4 KT):0
Visibility: greater than 7 mile(s):0
Sky conditions: mostly clear
Temperature: 84 F (29 C)
Dew Point: 75 F (24 C)
Relative Humidity: 74%
Pressure (altimeter): 29.85 in. Hg (1011 hPa)
ob: WALL 090100Z 33004KT 9999 FEW020 29/24 Q1011
cycle: 1

Station Type Date Time Source
WALL TAF 2018/12/10 06:00 UTC NOAA

TAF WALL 100500Z 1006/1112 06005KT 9999 FEW018CB SCT020
TEMPO 1010/1013 5000 RA


Example: see airport list